createdAt,value
2022-11-04T00:00:28.514Z,89.84
2022-11-04T00:03:00.875Z,89.85
2022-11-04T00:05:29.539Z,89.89
2022-11-04T00:08:16.477Z,90.03
2022-11-04T00:11:03.550Z,90.10
2022-11-04T00:13:31.854Z,90.16
2022-11-04T00:16:21.853Z,90.14
2022-11-04T00:18:50.209Z,90.23
2022-11-04T00:21:37.421Z,90.12
2022-11-04T00:24:25.623Z,90.14
2022-11-04T00:27:12.251Z,90.02
2022-11-04T00:29:40.650Z,90.09
2022-11-04T00:32:28.151Z,90.10
2022-11-04T00:34:56.433Z,90.21
2022-11-04T00:37:24.845Z,90.37
2022-11-04T00:39:53.482Z,90.34
2022-11-04T00:42:21.874Z,90.49
2022-11-04T00:44:50.249Z,90.57
2022-11-04T00:47:18.620Z,90.81
2022-11-04T00:49:46.926Z,90.77
2022-11-04T00:52:15.247Z,90.87
2022-11-04T00:54:43.643Z,91.08
2022-11-04T00:57:13.277Z,91.26
2022-11-04T00:59:42.557Z,91.25
2022-11-04T01:02:11.254Z,91.49
2022-11-04T01:04:39.865Z,91.62
2022-11-04T01:07:08.192Z,91.80
2022-11-04T01:09:36.683Z,91.91
2022-11-04T01:12:05.137Z,91.94
2022-11-04T01:14:33.856Z,92.04
2022-11-04T01:17:02.257Z,92.17
2022-11-04T01:19:30.533Z,92.23
2022-11-04T01:21:58.892Z,92.36
2022-11-04T01:24:27.474Z,92.53
2022-11-04T01:26:55.862Z,92.60
2022-11-04T01:29:24.170Z,92.70
2022-11-04T01:31:52.838Z,92.72
2022-11-04T01:34:21.495Z,92.77
2022-11-04T01:36:49.849Z,92.86
2022-11-04T01:39:18.192Z,92.93
2022-11-04T01:41:46.486Z,92.99
2022-11-04T01:44:42.844Z,93.06
2022-11-04T01:47:39.310Z,93.15
2022-11-04T01:50:22.789Z,93.19
2022-11-04T01:52:56.225Z,93.19
2022-11-04T01:55:29.171Z,93.28
2022-11-04T01:58:03.105Z,93.42
2022-11-04T02:00:32.602Z,93.71
2022-11-04T02:03:08.675Z,93.69
2022-11-04T02:05:37.177Z,93.87
2022-11-04T02:08:08.069Z,93.93
2022-11-04T02:10:37.622Z,94.04
2022-11-04T02:13:06.292Z,94.06
2022-11-04T02:15:50.989Z,94.11
2022-11-04T02:18:39.202Z,94.26
2022-11-04T02:21:53.856Z,94.36
2022-11-04T02:24:52.552Z,94.46
2022-11-04T02:27:31.764Z,94.53
2022-11-04T02:30:18.787Z,94.63
2022-11-04T02:33:08.572Z,94.51
2022-11-04T02:35:57.214Z,94.59
2022-11-04T02:38:55.555Z,94.57
2022-11-04T02:41:31.258Z,94.54
2022-11-04T02:44:28.922Z,94.73
2022-11-04T02:47:08.618Z,94.84
2022-11-04T02:50:06.061Z,94.96
2022-11-04T02:52:57.819Z,95.06
2022-11-04T02:55:43.932Z,95.11
2022-11-04T02:58:38.033Z,95.12
2022-11-04T03:01:11.154Z,95.27
2022-11-04T03:03:47.165Z,95.42
2022-11-04T03:06:21.997Z,95.61
2022-11-04T03:08:54.652Z,95.85
2022-11-04T03:11:27.477Z,96.02
2022-11-04T03:14:16.958Z,96.20
2022-11-04T03:16:46.707Z,96.38
2022-11-04T03:19:20.597Z,96.47
2022-11-04T03:22:18.466Z,96.50
2022-11-04T03:24:49.350Z,96.65
2022-11-04T03:27:58.554Z,96.68
2022-11-04T03:30:33.288Z,96.71
2022-11-04T03:33:16.875Z,96.81
2022-11-04T03:35:45.338Z,96.88
2022-11-04T03:38:13.703Z,96.89
2022-11-04T03:40:42.368Z,96.87
2022-11-04T03:43:16.470Z,96.79
2022-11-04T03:45:45.606Z,96.85
2022-11-04T03:48:14.103Z,96.92
2022-11-04T03:50:47.815Z,96.91
2022-11-04T03:53:22.886Z,96.87
2022-11-04T03:56:06.706Z,96.86
2022-11-04T03:58:55.050Z,96.90
2022-11-04T04:01:45.825Z,96.99
2022-11-04T04:04:23.041Z,96.99
2022-11-04T04:06:57.362Z,97.01
2022-11-04T04:09:39.178Z,96.99
2022-11-04T04:12:23.424Z,96.98
2022-11-04T04:14:56.964Z,97.04
2022-11-04T04:17:36.379Z,96.96
2022-11-04T04:20:20.705Z,97.08
2022-11-04T04:22:58.521Z,97.08
2022-11-04T04:25:48.486Z,97.09
2022-11-04T04:28:19.465Z,97.03
2022-11-04T04:30:47.968Z,97.06
2022-11-04T04:33:18.348Z,97.18
2022-11-04T04:35:55.343Z,97.20
2022-11-04T04:38:52.867Z,97.13
2022-11-04T04:41:48.938Z,97.15
2022-11-04T04:44:41.450Z,97.11
2022-11-04T04:47:19.914Z,97.20
2022-11-04T04:50:00.672Z,97.21
2022-11-04T04:52:49.639Z,97.11
2022-11-04T04:55:19.266Z,97.20
2022-11-04T04:57:49.328Z,97.11
2022-11-04T05:00:21.049Z,97.17
2022-11-04T05:02:49.659Z,97.33
2022-11-04T05:05:19.186Z,97.14
2022-11-04T05:07:47.871Z,97.04
2022-11-04T05:10:18.041Z,97.05
2022-11-04T05:13:05.307Z,97.13
2022-11-04T05:15:35.612Z,97.10
2022-11-04T05:18:03.941Z,97.16
2022-11-04T05:20:34.473Z,97.24
2022-11-04T05:23:02.956Z,97.20
2022-11-04T05:25:31.309Z,97.09
2022-11-04T05:28:01.871Z,97.17
2022-11-04T05:30:30.249Z,97.27
2022-11-04T05:33:01.757Z,97.17
2022-11-04T05:35:34.465Z,97.23
2022-11-04T05:38:03.071Z,97.19
2022-11-04T05:40:31.517Z,97.41
2022-11-04T05:43:00.676Z,97.30
2022-11-04T05:45:29.600Z,97.26
2022-11-04T05:48:03.734Z,97.23
2022-11-04T05:50:33.906Z,97.14
2022-11-04T05:53:02.369Z,97.12
2022-11-04T05:55:30.670Z,97.04
2022-11-04T05:57:59.386Z,96.97
2022-11-04T06:00:28.308Z,96.84
2022-11-04T06:02:57.457Z,96.61
2022-11-04T06:05:27.877Z,96.56
2022-11-04T06:07:56.844Z,96.35
2022-11-04T06:10:25.736Z,96.45
2022-11-04T06:12:54.017Z,96.42
2022-11-04T06:15:22.644Z,96.48
2022-11-04T06:17:51.079Z,96.52
2022-11-04T06:20:19.501Z,96.62
2022-11-04T06:22:47.890Z,96.65
2022-11-04T06:25:16.701Z,96.63
2022-11-04T06:27:45.140Z,96.84
2022-11-04T06:30:13.516Z,96.91
2022-11-04T06:32:41.870Z,97.06
2022-11-04T06:35:10.212Z,97.06
2022-11-04T06:37:38.936Z,97.24
2022-11-04T06:40:08.324Z,97.39
2022-11-04T06:42:37.368Z,97.42
2022-11-04T06:45:06.289Z,97.56
2022-11-04T06:47:34.664Z,97.64
2022-11-04T06:50:03.488Z,97.83
2022-11-04T06:52:31.777Z,97.93
2022-11-04T06:55:00.423Z,97.97
2022-11-04T06:57:28.717Z,98.13
2022-11-04T06:59:57.250Z,98.23
2022-11-04T07:02:25.731Z,98.32
2022-11-04T07:04:54.308Z,98.22
2022-11-04T07:07:22.745Z,98.29
2022-11-04T07:09:51.032Z,98.29
2022-11-04T07:12:19.360Z,98.18
2022-11-04T07:14:47.677Z,98.26
2022-11-04T07:17:16.045Z,98.15
2022-11-04T07:19:45.276Z,98.34
2022-11-04T07:22:13.624Z,98.16
2022-11-04T07:24:41.992Z,98.06
2022-11-04T07:27:11.292Z,97.89
2022-11-04T07:29:39.908Z,97.88
2022-11-04T07:32:09.410Z,97.68
2022-11-04T07:34:38.199Z,97.56
2022-11-04T07:37:06.671Z,97.25
2022-11-04T07:39:35.037Z,96.90
2022-11-04T07:42:03.545Z,96.82
2022-11-04T07:44:31.883Z,96.76
2022-11-04T07:47:00.274Z,96.68
2022-11-04T07:49:28.808Z,96.59
2022-11-04T07:51:57.200Z,96.41
2022-11-04T07:54:25.540Z,96.30
2022-11-04T07:56:54.000Z,96.23
2022-11-04T07:59:22.303Z,96.13
2022-11-04T08:01:50.827Z,95.97
2022-11-04T08:04:20.135Z,95.85
2022-11-04T08:06:48.603Z,95.66
2022-11-04T08:09:17.004Z,95.52
2022-11-04T08:11:45.459Z,95.39
2022-11-04T08:14:13.792Z,95.30
2022-11-04T08:16:42.319Z,95.24
2022-11-04T08:19:11.300Z,95.18
2022-11-04T08:21:39.896Z,95.04
2022-11-04T08:24:08.358Z,95.02
2022-11-04T08:26:36.973Z,94.77
2022-11-04T08:29:09.208Z,94.76
2022-11-04T08:31:37.796Z,94.55
2022-11-04T08:34:08.399Z,94.58
2022-11-04T08:36:40.969Z,94.49
2022-11-04T08:39:11.616Z,94.35
2022-11-04T08:41:43.055Z,94.36
2022-11-04T08:44:14.993Z,94.44
2022-11-04T08:46:45.475Z,94.37
2022-11-04T08:49:19.690Z,94.38
2022-11-04T08:51:56.290Z,94.15
2022-11-04T08:54:25.958Z,94.07
2022-11-04T08:56:54.314Z,93.97
2022-11-04T08:59:22.979Z,94.06
2022-11-04T09:01:51.426Z,93.88
2022-11-04T09:04:20.120Z,93.60
2022-11-04T09:06:50.914Z,93.64
2022-11-04T09:09:20.083Z,93.79
2022-11-04T09:11:48.617Z,93.86
2022-11-04T09:14:17.995Z,93.84
2022-11-04T09:16:46.400Z,93.85
2022-11-04T09:19:15.093Z,93.77
2022-11-04T09:21:43.772Z,93.46
2022-11-04T09:24:12.401Z,93.24
2022-11-04T09:26:40.848Z,93.15
2022-11-04T09:29:09.966Z,93.36
2022-11-04T09:31:38.990Z,93.48
2022-11-04T09:34:08.012Z,93.55
2022-11-04T09:36:36.451Z,93.74
2022-11-04T09:39:05.288Z,94.00
2022-11-04T09:41:43.976Z,94.07
2022-11-04T09:45:21.203Z,93.88
2022-11-04T09:47:44.093Z,93.79
2022-11-04T09:50:25.634Z,93.89
2022-11-04T09:53:07.492Z,93.89
2022-11-04T09:55:55.381Z,93.63
2022-11-04T09:58:24.491Z,93.20
2022-11-04T10:01:06.494Z,93.29
2022-11-04T10:04:03.008Z,93.23
2022-11-04T10:07:26.084Z,92.83
2022-11-04T10:10:46.104Z,92.21
2022-11-04T10:13:46.503Z,92.03
2022-11-04T10:16:52.200Z,92.00
2022-11-04T10:19:38.023Z,91.87
2022-11-04T10:22:43.679Z,91.88
2022-11-04T10:25:23.545Z,91.92
2022-11-04T10:27:52.517Z,91.90
2022-11-04T10:30:29.351Z,91.67
2022-11-04T10:33:37.493Z,91.70
2022-11-04T10:36:09.565Z,91.27
2022-11-04T10:38:52.874Z,90.57
2022-11-04T10:41:24.150Z,90.29
2022-11-04T10:44:01.591Z,90.22
2022-11-04T10:47:25.190Z,90.42
2022-11-04T10:50:27.754Z,90.47
2022-11-04T10:53:22.781Z,89.76
2022-11-04T10:56:01.631Z,89.48
2022-11-04T10:58:35.476Z,89.31
2022-11-04T11:01:32.696Z,89.32
2022-11-04T11:04:07.339Z,89.42
2022-11-04T11:06:36.907Z,89.33
2022-11-04T11:09:25.780Z,89.09
2022-11-04T11:12:29.394Z,89.25
2022-11-04T11:14:55.198Z,89.13
2022-11-04T11:17:38.457Z,88.87
2022-11-04T11:20:24.186Z,88.56
2022-11-04T11:22:54.248Z,88.04
2022-11-04T11:25:31.298Z,87.35
2022-11-04T11:28:00.870Z,85.92
2022-11-04T11:30:58.909Z,85.13
2022-11-04T11:33:33.435Z,84.35
2022-11-04T11:36:20.356Z,83.72
2022-11-04T11:39:14.255Z,83.47
2022-11-04T11:42:12.250Z,83.26
2022-11-04T11:44:52.973Z,83.27
2022-11-04T11:47:25.212Z,83.18
2022-11-04T11:50:20.442Z,83.28
2022-11-04T11:52:49.543Z,83.32
2022-11-04T11:55:27.816Z,83.31
2022-11-04T12:01:42.487Z,83.75
2022-11-04T12:10:49.911Z,83.83
2022-11-04T12:13:29.444Z,83.94
2022-11-04T12:16:32.043Z,83.88
2022-11-04T12:19:52.891Z,83.92
2022-11-04T12:23:05.380Z,83.74
2022-11-04T12:25:54.563Z,83.80
2022-11-04T12:28:47.719Z,84.10
2022-11-04T12:31:34.156Z,84.29
2022-11-04T12:34:31.651Z,84.27
2022-11-04T12:37:20.504Z,84.32
2022-11-04T12:40:15.445Z,84.14
2022-11-04T12:43:25.443Z,84.29
2022-11-04T12:46:04.973Z,84.50
2022-11-04T12:49:10.964Z,84.39
2022-11-04T12:52:00.488Z,84.45
2022-11-04T12:55:04.313Z,84.61
2022-11-04T12:58:02.762Z,84.59
2022-11-04T13:00:36.043Z,84.72
2022-11-04T13:03:30.188Z,84.92
2022-11-04T13:06:06.984Z,84.81
2022-11-04T13:08:59.088Z,84.82
2022-11-04T13:11:58.273Z,85.02
2022-11-04T13:14:59.253Z,85.09
2022-11-04T13:17:33.853Z,85.21
2022-11-04T13:20:14.177Z,85.38
2022-11-04T13:22:48.321Z,85.37
2022-11-04T13:25:26.576Z,85.30
2022-11-04T13:27:55.186Z,85.22
2022-11-04T13:30:39.660Z,85.13
2022-11-04T13:33:43.718Z,85.07
2022-11-04T13:36:40.943Z,85.02
2022-11-04T13:39:34.828Z,85.07
2022-11-04T13:42:14.903Z,84.97
2022-11-04T13:44:47.283Z,84.94
2022-11-04T13:47:54.016Z,84.99
2022-11-04T13:50:35.483Z,84.82
2022-11-04T13:53:11.516Z,84.79
2022-11-04T13:55:50.345Z,84.81
2022-11-04T13:58:27.110Z,84.72
2022-11-04T14:01:27.344Z,84.81
2022-11-04T14:04:14.195Z,85.02
2022-11-04T14:06:55.987Z,84.96
2022-11-04T14:09:36.786Z,85.13
2022-11-04T14:12:11.652Z,85.15
2022-11-04T14:14:44.767Z,85.25
2022-11-04T14:17:34.863Z,85.18
2022-11-04T14:20:09.111Z,85.28
2022-11-04T14:22:43.433Z,85.40
2022-11-04T14:25:24.816Z,85.53
2022-11-04T14:28:01.678Z,85.60
2022-11-04T14:30:43.658Z,85.89
2022-11-04T14:33:33.834Z,85.92
2022-11-04T14:36:22.890Z,85.93
2022-11-04T14:38:58.133Z,86.06
2022-11-04T14:41:29.274Z,86.02
2022-11-04T14:44:03.196Z,86.03
2022-11-04T14:46:36.428Z,86.03
2022-11-04T14:49:05.019Z,86.05
2022-11-04T14:51:40.929Z,86.05
2022-11-04T14:54:26.400Z,86.16
2022-11-04T14:57:13.990Z,86.09
2022-11-04T14:59:42.738Z,86.26
2022-11-04T15:02:28.862Z,86.29
2022-11-04T15:05:00.323Z,86.37
2022-11-04T15:07:38.969Z,86.47
2022-11-04T15:10:36.849Z,86.57
2022-11-04T15:13:05.170Z,86.51
2022-11-04T15:15:47.540Z,86.77
2022-11-04T15:18:28.067Z,86.95
2022-11-04T15:21:00.724Z,87.37
2022-11-04T15:23:39.926Z,87.38
2022-11-04T15:26:30.386Z,87.51
2022-11-04T15:29:03.546Z,87.53
2022-11-04T15:31:33.845Z,87.69
2022-11-04T15:34:09.135Z,88.03
2022-11-04T15:36:42.554Z,88.25
2022-11-04T15:39:20.265Z,88.36
2022-11-04T15:42:13.663Z,88.46
2022-11-04T15:44:49.131Z,88.56
2022-11-04T15:47:17.339Z,88.73
2022-11-04T15:49:52.154Z,88.96
2022-11-04T15:52:27.143Z,89.02
2022-11-04T15:55:00.917Z,89.11
2022-11-04T15:57:38.235Z,89.36
2022-11-04T16:00:28.424Z,89.60
2022-11-04T16:02:59.806Z,89.74
2022-11-04T16:05:38.174Z,89.73
2022-11-04T16:08:27.382Z,89.91
2022-11-04T16:11:18.399Z,90.24
2022-11-04T16:13:47.349Z,90.37
2022-11-04T16:16:27.697Z,90.47
2022-11-04T16:18:57.700Z,90.70
2022-11-04T16:21:36.215Z,90.75
2022-11-04T16:24:41.927Z,90.88
2022-11-04T16:27:11.555Z,91.25
2022-11-04T16:29:43.936Z,91.31
2022-11-04T16:32:51.821Z,91.60
2022-11-04T16:35:26.935Z,91.89
2022-11-04T16:37:56.586Z,91.86
2022-11-04T16:40:25.419Z,92.05
2022-11-04T16:42:54.254Z,92.22
2022-11-04T16:45:34.839Z,92.37
2022-11-04T16:48:05.485Z,92.41
2022-11-04T16:50:33.996Z,92.51
2022-11-04T16:53:06.776Z,92.74
2022-11-04T16:55:39.388Z,93.05
2022-11-04T16:59:23.740Z,93.30
2022-11-04T17:01:52.270Z,93.63
2022-11-04T17:04:20.665Z,93.69
2022-11-04T17:06:48.969Z,93.71
2022-11-04T17:09:23.045Z,93.92
2022-11-04T17:11:51.403Z,94.13
2022-11-04T17:14:19.686Z,94.24
2022-11-04T17:17:13.277Z,94.30
2022-11-04T17:23:00.115Z,94.72
2022-11-04T17:25:30.283Z,94.83
2022-11-04T17:27:58.874Z,94.98
2022-11-04T17:31:19.694Z,95.10
2022-11-04T17:33:48.235Z,95.32
2022-11-04T17:36:19.385Z,95.45
2022-11-04T17:39:13.631Z,95.56
2022-11-04T17:48:36.994Z,96.24
2022-11-04T17:51:09.089Z,96.35
2022-11-04T17:54:02.976Z,96.49
2022-11-04T18:00:53.340Z,96.99
2022-11-04T18:03:21.733Z,97.09
2022-11-04T18:05:59.110Z,97.11
2022-11-04T18:08:27.431Z,97.55
2022-11-04T18:11:01.564Z,97.52
2022-11-04T18:13:30.293Z,97.69
2022-11-04T18:15:58.700Z,97.65
2022-11-04T18:18:27.045Z,97.77
2022-11-04T18:21:03.763Z,97.90
2022-11-04T18:23:32.184Z,98.21
2022-11-04T18:26:00.580Z,98.32
2022-11-04T18:29:44.269Z,98.49
2022-11-04T18:32:38.097Z,98.78
2022-11-04T18:37:59.881Z,99.00
2022-11-04T18:40:28.310Z,99.03
2022-11-04T18:42:56.790Z,99.17
2022-11-04T18:45:25.215Z,99.40
2022-11-04T18:47:53.694Z,99.48
2022-11-04T18:50:22.134Z,99.54
2022-11-04T18:52:55.289Z,99.61
2022-11-04T18:55:24.324Z,99.80
2022-11-04T18:57:55.795Z,99.92
2022-11-04T19:00:24.482Z,99.87
2022-11-04T19:02:52.855Z,100.00
2022-11-04T19:10:19.038Z,100.00
2022-11-04T19:13:06.173Z,100.00
2022-11-04T19:15:34.899Z,100.00
2022-11-04T19:18:28.796Z,100.00
2022-11-04T19:20:57.254Z,100.00
2022-11-04T19:31:43.147Z,100.00
2022-11-04T19:34:36.962Z,100.00
2022-11-04T19:37:05.443Z,100.00
2022-11-04T19:39:33.750Z,100.00
2022-11-04T19:51:58.391Z,100.00
2022-11-04T19:54:28.391Z,100.00
2022-11-04T19:56:56.755Z,100.00
2022-11-04T19:59:25.661Z,100.00
2022-11-04T20:01:54.095Z,100.00
2022-11-04T20:04:22.596Z,100.00
2022-11-04T20:06:50.918Z,100.00
2022-11-04T20:09:20.365Z,100.00
2022-11-04T20:20:55.760Z,100.00
2022-11-04T20:23:49.805Z,100.00
2022-11-04T20:26:22.888Z,100.00
2022-11-04T20:28:54.515Z,100.00
2022-11-04T20:35:32.827Z,100.00
2022-11-04T20:38:01.227Z,100.00
2022-11-04T20:40:55.173Z,100.00
2022-11-04T20:46:43.014Z,100.00
2022-11-04T20:49:12.954Z,100.00
2022-11-04T20:51:48.591Z,100.00
2022-11-04T20:54:45.800Z,100.00
2022-11-04T20:57:17.469Z,100.00
2022-11-04T20:59:45.791Z,100.00
2022-11-04T21:02:14.438Z,100.00
2022-11-04T21:04:44.484Z,100.00
2022-11-04T21:10:30.947Z,100.00
2022-11-04T21:12:59.352Z,100.00
2022-11-04T21:15:43.045Z,100.00
2022-11-04T21:18:13.245Z,100.00
2022-11-04T21:20:42.780Z,100.00
2022-11-04T21:26:35.164Z,100.00
2022-11-04T21:29:12.385Z,100.00
2022-11-04T21:31:41.311Z,100.00
2022-11-04T21:34:35.228Z,100.00
2022-11-04T21:37:30.049Z,100.00
2022-11-04T21:40:25.252Z,100.00
2022-11-04T21:53:41.755Z,100.00
2022-11-04T21:56:43.664Z,100.00
2022-11-04T21:59:17.993Z,100.00
2022-11-04T22:01:47.089Z,100.00
2022-11-04T22:04:15.666Z,100.00
2022-11-04T22:06:45.397Z,100.00
2022-11-04T22:09:13.850Z,100.00
2022-11-04T22:11:42.286Z,100.00
2022-11-04T22:14:12.257Z,100.00
2022-11-04T22:16:41.200Z,100.00
2022-11-04T22:55:32.095Z,100.00
2022-11-04T22:58:00.808Z,100.00
2022-11-04T23:00:29.812Z,100.00
2022-11-04T23:02:58.534Z,100.00
2022-11-04T23:05:30.663Z,100.00
2022-11-04T23:08:00.686Z,100.00
2022-11-04T23:10:49.306Z,100.00
2022-11-04T23:13:36.374Z,100.00
2022-11-04T23:16:23.577Z,100.00
2022-11-04T23:18:52.205Z,100.00
2022-11-04T23:31:15.897Z,100.00
2022-11-04T23:34:03.136Z,100.00
2022-11-04T23:36:49.964Z,100.00
2022-11-04T23:39:18.620Z,100.00
2022-11-04T23:42:05.669Z,100.00
2022-11-04T23:44:52.631Z,100.00
2022-11-04T23:47:39.521Z,100.00
2022-11-04T23:50:27.582Z,100.00
2022-11-04T23:53:14.740Z,100.00
2022-11-04T23:56:01.840Z,100.00
2022-11-04T23:58:48.803Z,100.00
